Time;durP1;ratioP1;P1;durP2;ratioP2;P2;SDS_P1;SDS_P2;PMS_P1;PMS_P2;Temp;Humidity;BMP_temperature;BMP_pressure;BME280_temperature;BME280_humidity;BME280_pressure;Samples;Min_cycle;Max_cycle;Signal;HPM_P1;HPM_P2
2023/09/09 00:01:49;;;;;;;13.07;6.78;;;19.90;99.90;;;;;;5002661;28;20041;-53
2023/09/09 00:04:15;;;;;;;11.18;6.75;;;19.80;99.90;;;;;;5022460;28;20033;-53
2023/09/09 00:06:41;;;;;;;7.40;6.55;;;19.80;99.90;;;;;;5020804;28;20046;-54
2023/09/09 00:09:06;;;;;;;7.68;6.10;;;19.90;99.90;;;;;;5021879;28;20017;-53
2023/09/09 00:11:32;;;;;;;8.18;6.65;;;19.90;99.90;;;;;;5021418;28;20109;-54
2023/09/09 00:13:58;;;;;;;9.00;6.55;;;19.90;99.90;;;;;;5020876;28;20030;-55
2023/09/09 00:16:24;;;;;;;11.88;6.32;;;19.90;99.90;;;;;;5002919;28;20029;-52
2023/09/09 00:18:49;;;;;;;8.02;6.88;;;19.80;99.90;;;;;;5021923;28;20018;-54
2023/09/09 00:21:15;;;;;;;8.32;6.65;;;19.90;99.90;;;;;;5019931;28;20041;-50
2023/09/09 00:23:41;;;;;;;9.20;6.55;;;19.80;99.90;;;;;;5022271;28;20033;-53
2023/09/09 00:26:06;;;;;;;8.50;7.13;;;19.80;99.90;;;;;;5021441;28;20050;-53
2023/09/09 00:28:33;;;;;;;10.63;6.30;;;19.80;99.90;;;;;;5021241;28;20466;-53
2023/09/09 00:30:58;;;;;;;11.80;6.85;;;19.70;99.90;;;;;;5021405;28;20053;-56
2023/09/09 00:33:24;;;;;;;7.60;6.38;;;19.70;99.90;;;;;;5021522;28;20059;-51
2023/09/09 00:35:50;;;;;;;12.43;6.28;;;19.70;99.90;;;;;;5023615;28;20022;-52
2023/09/09 00:38:17;;;;;;;9.70;7.00;;;19.60;99.90;;;;;;5006509;28;20041;-54
2023/09/09 00:41:04;;;;;;;12.05;6.28;;;19.70;99.90;;;;;;5006596;28;20049;-53
2023/09/09 00:43:29;;;;;;;7.53;6.47;;;19.70;99.90;;;;;;5025363;28;20036;-54
2023/09/09 00:45:55;;;;;;;10.25;6.82;;;19.70;99.90;;;;;;5023235;28;20030;-50
2023/09/09 00:48:21;;;;;;;7.13;5.97;;;19.70;99.90;;;;;;5025232;28;20486;-54
2023/09/09 00:50:47;;;;;;;8.77;6.07;;;19.70;99.90;;;;;;5024965;28;20500;-52
2023/09/09 00:53:13;;;;;;;9.90;7.03;;;19.70;99.90;;;;;;5024869;28;20385;-53
2023/09/09 00:55:40;;;;;;;7.68;6.53;;;19.70;99.90;;;;;;5006247;28;20029;-48
2023/09/09 00:58:07;;;;;;;10.02;6.55;;;19.70;99.90;;;;;;5024857;28;20065;-52
2023/09/09 01:00:33;;;;;;;8.18;6.22;;;19.60;99.90;;;;;;5024769;28;20079;-50
2023/09/09 01:02:58;;;;;;;8.85;6.38;;;19.60;99.90;;;;;;5024795;28;20405;-54
2023/09/09 01:05:26;;;;;;;10.50;6.65;;;19.50;99.90;;;;;;5005986;28;20037;-52
2023/09/09 01:07:51;;;;;;;11.23;7.15;;;19.50;99.90;;;;;;5006195;28;20494;-52
2023/09/09 01:10:18;;;;;;;9.27;6.43;;;19.50;99.90;;;;;;5024994;28;20029;-53
2023/09/09 01:12:44;;;;;;;7.43;6.13;;;19.50;99.90;;;;;;4997635;28;20038;-50
2023/09/09 01:15:12;;;;;;;11.10;6.47;;;19.50;99.90;;;;;;5025082;28;20136;-51
2023/09/09 01:17:38;;;;;;;8.70;6.20;;;19.50;99.90;;;;;;5024783;28;20476;-49
2023/09/09 01:20:09;;;;;;;7.10;6.22;;;19.50;99.90;;;;;;5031223;28;20123;-49
2023/09/09 01:22:36;;;;;;;7.55;6.28;;;19.50;99.90;;;;;;5023172;28;20116;-52
2023/09/09 01:25:04;;;;;;;7.82;5.70;;;19.50;99.90;;;;;;5023330;28;20495;-54
2023/09/09 01:27:30;;;;;;;7.38;6.18;;;19.50;99.90;;;;;;5024425;28;20065;-53
2023/09/09 01:29:55;;;;;;;8.02;6.72;;;19.50;99.90;;;;;;5024880;28;20030;-51
2023/09/09 01:32:21;;;;;;;10.05;6.63;;;19.50;99.90;;;;;;5024534;28;20474;-53
2023/09/09 01:34:48;;;;;;;10.70;6.70;;;19.50;99.90;;;;;;5005394;28;20125;-53
2023/09/09 01:37:14;;;;;;;10.52;7.07;;;19.50;99.90;;;;;;5023968;28;20033;-52
2023/09/09 01:39:39;;;;;;;10.20;7.05;;;19.50;99.90;;;;;;5023999;28;20036;-50
2023/09/09 01:42:05;;;;;;;11.07;6.32;;;19.50;99.90;;;;;;5024248;28;20030;-51
2023/09/09 01:44:31;;;;;;;11.88;6.90;;;19.50;99.90;;;;;;5022538;28;20040;-54
2023/09/09 01:46:56;;;;;;;9.88;6.38;;;19.50;99.90;;;;;;5023389;28;20046;-50
2023/09/09 01:49:22;;;;;;;9.07;6.57;;;19.50;99.90;;;;;;5005748;28;20068;-52
2023/09/09 01:51:48;;;;;;;10.95;6.18;;;19.40;99.90;;;;;;5023435;28;20037;-50
2023/09/09 01:54:14;;;;;;;8.93;6.82;;;19.40;99.90;;;;;;4964354;28;20091;-52
2023/09/09 01:56:39;;;;;;;7.85;5.95;;;19.40;99.90;;;;;;5021609;28;20485;-52
2023/09/09 01:59:05;;;;;;;8.85;6.00;;;19.30;99.90;;;;;;5024244;28;20057;-54
2023/09/09 02:01:31;;;;;;;8.70;6.25;;;19.30;99.90;;;;;;5024408;28;20044;-53
2023/09/09 02:03:56;;;;;;;9.38;7.10;;;19.30;99.90;;;;;;5024265;28;20022;-50
2023/09/09 02:06:22;;;;;;;9.13;6.80;;;19.30;99.90;;;;;;5024016;28;20084;-53
2023/09/09 02:08:48;;;;;;;9.85;6.85;;;19.30;99.90;;;;;;5004850;28;20033;-53
2023/09/09 02:11:13;;;;;;;9.57;6.35;;;19.30;99.90;;;;;;5023110;28;20052;-53
2023/09/09 02:13:39;;;;;;;12.80;7.28;;;19.20;99.90;;;;;;5004768;28;20068;-51
2023/09/09 02:16:06;;;;;;;9.20;7.43;;;19.20;99.90;;;;;;5023883;28;20017;-53
2023/09/09 02:18:33;;;;;;;8.57;7.10;;;19.30;99.90;;;;;;5023891;28;20067;-52
2023/09/09 02:20:59;;;;;;;12.52;7.32;;;19.30;99.90;;;;;;5023652;28;20034;-51
2023/09/09 02:23:25;;;;;;;19.30;8.10;;;19.20;99.90;;;;;;5023901;28;20025;-52
2023/09/09 02:25:51;;;;;;;12.50;6.60;;;19.20;99.90;;;;;;5021227;28;20048;-52
2023/09/09 02:28:19;;;;;;;10.20;7.20;;;19.20;99.90;;;;;;5023537;28;20492;-50
2023/09/09 02:30:45;;;;;;;14.43;6.95;;;19.20;99.90;;;;;;5023582;28;20489;-51
2023/09/09 02:33:11;;;;;;;12.75;6.85;;;19.20;99.90;;;;;;5023406;28;20033;-51
2023/09/09 02:35:44;;;;;;;9.32;6.40;;;19.10;99.90;;;;;;5004624;28;20072;-53
2023/09/09 02:38:10;;;;;;;10.30;6.90;;;19.10;99.90;;;;;;5023325;28;20029;-50
2023/09/09 02:40:36;;;;;;;11.63;6.50;;;19.00;99.90;;;;;;5022810;28;20394;-53
2023/09/09 02:43:02;;;;;;;9.73;7.13;;;19.00;99.90;;;;;;5022463;28;20069;-50
2023/09/09 02:45:28;;;;;;;10.25;6.88;;;19.00;99.90;;;;;;4971598;28;20033;-52
2023/09/09 02:47:54;;;;;;;9.93;6.53;;;19.00;99.90;;;;;;5022921;28;20041;-55
2023/09/09 02:50:20;;;;;;;11.13;7.20;;;18.90;99.90;;;;;;5023020;28;20061;-49
2023/09/09 02:52:49;;;;;;;15.75;6.75;;;18.90;99.90;;;;;;5023435;28;20063;-50
2023/09/09 02:55:15;;;;;;;15.70;7.10;;;18.80;99.90;;;;;;5023032;28;20385;-50
2023/09/09 02:57:40;;;;;;;9.02;6.40;;;18.80;99.90;;;;;;5022464;28;20044;-50
2023/09/09 03:00:10;;;;;;;8.77;6.82;;;18.90;99.90;;;;;;5022374;28;20033;-52
2023/09/09 03:02:35;;;;;;;10.27;6.63;;;18.70;99.90;;;;;;5004315;28;20061;-52
2023/09/09 03:05:03;;;;;;;11.07;6.78;;;18.80;99.90;;;;;;4987478;28;20034;-53
2023/09/09 03:07:28;;;;;;;8.45;6.30;;;18.80;99.90;;;;;;5022573;28;20373;-50
2023/09/09 03:09:55;;;;;;;9.60;6.72;;;18.80;99.90;;;;;;5022556;28;20029;-51
2023/09/09 03:12:20;;;;;;;11.32;7.57;;;18.80;99.90;;;;;;5022322;28;20021;-51
2023/09/09 03:14:50;;;;;;;8.45;6.68;;;18.80;99.90;;;;;;5021639;28;20044;-54
2023/09/09 03:17:17;;;;;;;11.88;7.50;;;;;;;;;;5022879;28;20105;-50
2023/09/09 03:19:43;;;;;;;8.32;6.50;;;18.70;99.90;;;;;;5022608;28;20385;-54
2023/09/09 03:22:08;;;;;;;11.18;6.30;;;18.70;99.90;;;;;;5022308;28;20036;-51
2023/09/09 03:24:34;;;;;;;7.95;6.55;;;18.70;99.90;;;;;;5022284;28;20022;-51
2023/09/09 03:27:00;;;;;;;10.20;6.65;;;18.80;99.90;;;;;;5021722;28;20049;-50
2023/09/09 03:29:26;;;;;;;11.88;7.45;;;18.70;99.90;;;;;;5022038;28;20038;-53
2023/09/09 03:31:52;;;;;;;12.10;7.10;;;;;;;;;;5022469;28;20030;-52
2023/09/09 03:34:18;;;;;;;12.38;7.82;;;18.50;99.90;;;;;;5022340;28;20076;-51
2023/09/09 03:36:43;;;;;;;11.73;7.97;;;18.50;99.90;;;;;;5022428;28;20070;-50
2023/09/09 03:39:10;;;;;;;10.15;7.60;;;18.60;99.90;;;;;;5022308;28;20029;-49
2023/09/09 03:41:38;;;;;;;15.90;7.47;;;18.50;99.90;;;;;;5022069;28;20030;-52
2023/09/09 03:44:04;;;;;;;10.93;8.52;;;18.50;99.90;;;;;;5021956;28;20037;-53
2023/09/09 03:46:29;;;;;;;11.48;8.13;;;18.40;99.90;;;;;;5021627;28;20037;-53
2023/09/09 03:48:55;;;;;;;16.67;8.32;;;18.40;99.90;;;;;;5022164;28;20026;-53
2023/09/09 03:51:21;;;;;;;12.02;8.10;;;18.40;99.90;;;;;;5012053;28;20405;-52
2023/09/09 03:53:47;;;;;;;10.98;7.90;;;18.40;99.90;;;;;;5011628;28;20370;-53
2023/09/09 03:56:13;;;;;;;15.98;8.63;;;18.40;99.90;;;;;;5019924;28;20101;-55
2023/09/09 03:58:39;;;;;;;12.30;8.95;;;18.40;99.90;;;;;;5019427;28;20112;-52
2023/09/09 04:01:07;;;;;;;13.35;8.45;;;18.40;99.90;;;;;;5011594;28;20164;-52
2023/09/09 04:03:34;;;;;;;15.23;8.40;;;18.40;99.90;;;;;;5019576;28;20496;-55
2023/09/09 04:06:06;;;;;;;13.20;8.35;;;18.40;99.90;;;;;;5019792;28;20221;-49
2023/09/09 04:08:33;;;;;;;11.95;7.85;;;18.40;99.90;;;;;;5019943;28;20053;-51
2023/09/09 04:10:59;;;;;;;13.43;8.32;;;18.30;99.90;;;;;;5023686;28;20038;-51
2023/09/09 04:13:25;;;;;;;10.43;8.15;;;18.30;99.90;;;;;;5023482;28;20508;-53
2023/09/09 04:15:55;;;;;;;12.82;8.30;;;18.30;99.90;;;;;;5022952;28;20026;-54
2023/09/09 04:18:20;;;;;;;15.93;8.70;;;18.30;99.90;;;;;;5022849;28;20057;-52
2023/09/09 04:20:46;;;;;;;15.45;8.73;;;18.40;99.90;;;;;;5023020;28;20080;-52
2023/09/09 04:23:12;;;;;;;13.13;8.50;;;18.40;99.90;;;;;;5022862;28;20029;-53
2023/09/09 04:25:38;;;;;;;18.95;9.23;;;18.40;99.90;;;;;;5025273;28;20465;-54
2023/09/09 04:28:05;;;;;;;13.32;8.30;;;18.30;99.90;;;;;;5025595;28;20059;-50
2023/09/09 04:30:31;;;;;;;20.67;9.00;;;18.40;99.90;;;;;;5014884;28;20087;-50
2023/09/09 04:32:56;;;;;;;17.90;9.70;;;18.50;99.90;;;;;;5025872;28;20053;-54
2023/09/09 04:35:22;;;;;;;12.43;8.90;;;18.50;99.90;;;;;;5013297;28;20034;-52
2023/09/09 04:37:50;;;;;;;15.48;9.05;;;18.50;99.90;;;;;;5024810;28;20034;-51
2023/09/09 04:40:16;;;;;;;12.13;8.80;;;18.60;99.90;;;;;;5006957;28;20050;-53
2023/09/09 04:42:42;;;;;;;24.00;8.82;;;18.60;99.90;;;;;;5024822;28;20437;-51
2023/09/09 04:45:09;;;;;;;13.00;8.95;;;18.70;99.90;;;;;;5025446;28;20355;-49
2023/09/09 04:47:35;;;;;;;13.35;8.30;;;18.70;99.90;;;;;;5023276;28;20392;-52
2023/09/09 04:50:00;;;;;;;15.50;8.27;;;18.70;99.90;;;;;;5025675;28;20034;-54
2023/09/09 04:52:26;;;;;;;16.42;8.15;;;18.80;99.90;;;;;;5025439;28;20037;-54
2023/09/09 04:54:52;;;;;;;9.13;7.88;;;18.80;99.90;;;;;;4981453;28;20044;-55
2023/09/09 04:57:17;;;;;;;12.77;7.85;;;18.90;99.90;;;;;;5027234;28;20065;-51
2023/09/09 04:59:43;;;;;;;13.70;8.05;;;18.90;99.90;;;;;;5007705;28;20061;-55
2023/09/09 05:02:09;;;;;;;12.02;8.35;;;19.00;99.90;;;;;;5024894;28;20032;-53
2023/09/09 05:04:35;;;;;;;8.73;7.57;;;19.00;99.90;;;;;;5025092;28;20029;-55
2023/09/09 05:07:01;;;;;;;9.48;6.88;;;19.10;99.90;;;;;;5025289;28;20041;-53
2023/09/09 05:09:27;;;;;;;15.85;8.07;;;19.10;99.90;;;;;;5025069;28;20041;-51
2023/09/09 05:11:53;;;;;;;12.52;7.18;;;19.10;99.90;;;;;;5025427;28;20026;-50
2023/09/09 05:14:19;;;;;;;17.90;7.85;;;19.20;99.90;;;;;;5024645;28;20034;-52
2023/09/09 05:16:44;;;;;;;12.13;7.25;;;19.20;99.90;;;;;;5024464;28;20037;-51
2023/09/09 05:19:10;;;;;;;12.18;7.47;;;19.20;99.90;;;;;;5006054;28;20041;-54
2023/09/09 05:21:36;;;;;;;11.93;7.97;;;19.30;99.90;;;;;;5006782;28;20112;-53
2023/09/09 05:24:02;;;;;;;10.23;7.72;;;19.30;99.90;;;;;;5025224;28;20029;-54
2023/09/09 05:26:28;;;;;;;17.05;8.02;;;19.40;99.90;;;;;;4989916;28;20054;-54
2023/09/09 05:28:54;;;;;;;11.35;8.45;;;19.50;99.90;;;;;;5024711;28;20053;-52
2023/09/09 05:31:20;;;;;;;10.82;7.60;;;19.50;99.90;;;;;;5024940;28;20026;-53
2023/09/09 05:33:45;;;;;;;12.13;7.82;;;19.50;99.90;;;;;;5024018;28;20372;-51
2023/09/09 05:36:11;;;;;;;11.30;7.90;;;19.50;99.90;;;;;;5023944;28;20029;-52
2023/09/09 05:38:37;;;;;;;10.00;7.90;;;19.60;99.90;;;;;;5023977;28;20043;-54
2023/09/09 05:41:03;;;;;;;15.30;9.32;;;19.60;99.90;;;;;;5004138;28;20040;-52
2023/09/09 05:43:28;;;;;;;13.07;9.10;;;19.80;99.90;;;;;;5024492;28;20038;-54
2023/09/09 05:45:59;;;;;;;14.70;9.77;;;;;;;;;;5005428;28;20033;-54
2023/09/09 05:48:26;;;;;;;16.65;10.38;;;20.00;99.90;;;;;;5024404;28;20022;-52
2023/09/09 05:50:55;;;;;;;17.50;10.98;;;20.10;99.90;;;;;;5023936;28;20041;-50
2023/09/09 05:53:21;;;;;;;16.70;11.20;;;20.00;99.90;;;;;;5023599;28;20040;-53
2023/09/09 05:55:47;;;;;;;15.35;11.82;;;20.00;99.90;;;;;;5023408;28;20030;-49
2023/09/09 05:58:12;;;;;;;19.50;12.05;;;20.10;99.90;;;;;;5023889;28;20083;-51
2023/09/09 06:00:38;;;;;;;15.27;12.07;;;19.90;99.90;;;;;;5023913;28;20413;-52
2023/09/09 06:03:04;;;;;;;19.35;12.70;;;20.00;99.90;;;;;;5024071;28;20465;-53
2023/09/09 06:05:30;;;;;;;18.83;13.27;;;20.00;99.90;;;;;;5024132;28;20069;-52
2023/09/09 06:07:57;;;;;;;16.58;14.13;;;20.10;99.90;;;;;;5023958;28;20117;-52
2023/09/09 06:10:23;;;;;;;16.25;12.60;;;20.20;99.90;;;;;;5023522;28;20104;-51
2023/09/09 06:12:49;;;;;;;20.88;13.95;;;20.20;99.90;;;;;;5023169;28;20113;-55
2023/09/09 06:15:15;;;;;;;18.92;14.57;;;20.40;99.90;;;;;;5021102;28;20056;-55
2023/09/09 06:17:41;;;;;;;15.70;13.60;;;20.40;99.90;;;;;;5037800;28;20075;-52
2023/09/09 06:20:08;;;;;;;19.33;14.07;;;20.60;99.90;;;;;;5018843;28;20544;-53
2023/09/09 06:22:34;;;;;;;19.77;14.18;;;20.70;99.90;;;;;;5027025;28;20035;-53
2023/09/09 06:25:01;;;;;;;21.25;13.85;;;20.80;99.90;;;;;;5030185;28;20461;-55
2023/09/09 06:27:27;;;;;;;16.65;13.45;;;20.90;99.90;;;;;;5031566;28;20103;-52
2023/09/09 06:29:52;;;;;;;21.17;14.82;;;21.10;99.90;;;;;;5026562;28;20025;-51
2023/09/09 06:32:18;;;;;;;16.75;13.43;;;21.40;99.90;;;;;;5026769;28;20041;-51
2023/09/09 06:34:44;;;;;;;21.92;13.82;;;;;;;;;;5028241;28;20041;-51
2023/09/09 06:37:10;;;;;;;17.90;13.77;;;;;;;;;;5028120;28;20021;-51
2023/09/09 06:39:37;;;;;;;17.80;13.10;;;;;;;;;;5025160;28;20358;-52
2023/09/09 06:42:03;;;;;;;15.80;13.65;;;;;;;;;;5029488;28;20481;-51
2023/09/09 06:44:29;;;;;;;19.38;13.70;;;;;;;;;;5026161;28;20034;-52
2023/09/09 06:46:55;;;;;;;16.67;13.93;;;;;;;;;;5024368;28;20056;-55
2023/09/09 06:49:21;;;;;;;21.80;14.60;;;;;;;;;;5031124;28;20389;-55
2023/09/09 06:51:47;;;;;;;17.67;13.77;;;;;;;;;;5027283;28;20104;-52
2023/09/09 06:54:13;;;;;;;19.35;13.88;;;;;;;;;;5024550;28;20025;-53
2023/09/09 06:56:40;;;;;;;20.88;14.90;;;;;;;;;;5017457;28;20057;-56
2023/09/09 06:59:08;;;;;;;14.30;12.63;;;22.80;99.90;;;;;;5023774;28;20025;-54
2023/09/09 07:01:35;;;;;;;17.23;12.98;;;22.90;99.90;;;;;;5021434;28;20132;-53
2023/09/09 07:04:01;;;;;;;20.83;13.02;;;23.20;99.90;;;;;;5023997;28;20041;-53
2023/09/09 07:06:27;;;;;;;14.52;11.68;;;23.20;99.90;;;;;;5020531;28;20045;-53
2023/09/09 07:08:52;;;;;;;16.92;13.15;;;23.40;99.90;;;;;;5024974;28;20033;-57
2023/09/09 07:11:18;;;;;;;15.05;11.80;;;;;;;;;;5023924;28;20029;-55
2023/09/09 07:13:44;;;;;;;16.27;11.73;;;23.80;99.90;;;;;;5024063;28;20087;-52
2023/09/09 07:16:10;;;;;;;13.93;11.68;;;24.00;99.90;;;;;;5023989;28;20045;-57
2023/09/09 07:18:36;;;;;;;13.43;10.40;;;24.10;99.90;;;;;;5031336;28;20075;-51
2023/09/09 07:21:02;;;;;;;15.27;10.38;;;24.10;99.90;;;;;;5022210;28;20021;-51
2023/09/09 07:23:28;;;;;;;13.82;10.18;;;;;;;;;;5020539;28;20050;-54
2023/09/09 07:25:54;;;;;;;17.85;8.82;;;;;;;;;;5024683;28;20026;-55
2023/09/09 07:28:23;;;;;;;16.55;8.80;;;;;;;;;;5025810;28;20030;-56
2023/09/09 07:30:48;;;;;;;14.23;8.45;;;24.90;99.90;;;;;;5022923;28;20396;-53
2023/09/09 07:33:14;;;;;;;10.25;7.40;;;24.60;99.90;;;;;;5024066;28;20041;-55
2023/09/09 07:35:41;;;;;;;15.15;8.07;;;25.00;99.90;;;;;;5030120;28;20037;-54
2023/09/09 07:38:07;;;;;;;14.38;8.75;;;25.20;99.90;;;;;;5022351;28;20056;-54
2023/09/09 07:40:33;;;;;;;10.70;8.07;;;25.60;99.90;;;;;;5025410;28;20100;-54
2023/09/09 07:42:59;;;;;;;14.52;8.25;;;25.20;99.90;;;;;;5024220;28;20064;-54
2023/09/09 07:45:26;;;;;;;11.63;8.35;;;;;;;;;;5022707;28;20558;-54
2023/09/09 07:47:51;;;;;;;12.38;8.05;;;26.00;99.90;;;;;;5025317;28;20453;-53
2023/09/09 07:50:17;;;;;;;11.80;8.10;;;;;;;;;;5001547;28;20033;-54
2023/09/09 07:52:43;;;;;;;9.80;8.50;;;26.50;99.90;;;;;;4990328;28;20144;-55
2023/09/09 07:55:10;;;;;;;17.33;8.95;;;26.60;99.90;;;;;;5027147;28;20863;-53
2023/09/09 07:57:35;;;;;;;13.95;8.45;;;26.90;99.90;;;;;;5025458;28;20064;-54
2023/09/09 08:00:03;;;;;;;11.02;7.57;;;;;;;;;;5024289;28;20083;-52
2023/09/09 08:02:30;;;;;;;8.38;6.70;;;;;;;;;;5021971;28;20105;-54
2023/09/09 08:04:56;;;;;;;13.93;6.68;;;27.40;98.80;;;;;;5024354;28;20041;-53
2023/09/09 08:07:22;;;;;;;8.85;6.15;;;27.50;99.30;;;;;;5021538;28;20029;-56
2023/09/09 08:09:48;;;;;;;11.70;6.10;;;27.60;98.80;;;;;;5018169;28;20042;-53
2023/09/09 08:12:13;;;;;;;9.23;6.88;;;28.10;99.50;;;;;;5007003;28;20041;-53
2023/09/09 08:14:44;;;;;;;10.90;5.95;;;;;;;;;;5024893;28;20059;-52
2023/09/09 08:17:10;;;;;;;6.57;4.47;;;28.50;97.80;;;;;;5021980;28;20022;-56
2023/09/09 08:19:36;;;;;;;5.38;3.70;;;;;;;;;;5000355;28;20042;-50
2023/09/09 08:22:02;;;;;;;8.00;4.47;;;28.40;96.00;;;;;;5007603;28;20029;-54
2023/09/09 08:24:27;;;;;;;9.15;4.38;;;28.50;96.40;;;;;;5022927;28;20116;-54
2023/09/09 08:26:53;;;;;;;7.80;4.93;;;28.70;96.90;;;;;;5004301;28;20417;-56
2023/09/09 08:29:19;;;;;;;6.70;4.03;;;28.40;96.30;;;;;;5003931;28;20038;-52
2023/09/09 08:31:48;;;;;;;6.78;4.25;;;;;;;;;;5024524;28;20018;-54
2023/09/09 08:34:14;;;;;;;8.68;4.82;;;;;;;;;;5023265;28;20022;-53
2023/09/09 08:36:40;;;;;;;11.40;4.60;;;;;;;;;;5020559;28;20095;-54
2023/09/09 08:39:06;;;;;;;6.25;4.38;;;29.80;99.90;;;;;;5022599;28;20045;-52
2023/09/09 08:41:32;;;;;;;10.27;4.43;;;;;;;;;;5022606;28;20029;-55
2023/09/09 08:44:07;;;;;;;10.48;4.03;;;;;;;;;;5025201;28;20036;-57
2023/09/09 08:46:33;;;;;;;9.68;4.22;;;30.30;95.00;;;;;;5024784;28;20355;-53
2023/09/09 08:49:04;;;;;;;10.13;4.57;;;;;;;;;;5023081;28;20029;-50
2023/09/09 08:51:35;;;;;;;6.32;4.20;;;;;;;;;;5022389;28;20030;-54
2023/09/09 08:54:02;;;;;;;7.05;4.55;;;31.10;94.70;;;;;;5020135;28;20037;-52
2023/09/09 08:56:28;;;;;;;9.27;5.93;;;;;;;;;;5009202;28;20057;-55
2023/09/09 08:58:54;;;;;;;11.85;7.20;;;31.50;95.00;;;;;;5025633;28;20033;-52
2023/09/09 09:01:21;;;;;;;5.82;4.57;;;;;;;;;;5028846;28;20491;-51
2023/09/09 09:03:49;;;;;;;11.40;4.95;;;31.90;94.40;;;;;;5027530;28;20044;-50
2023/09/09 09:06:16;;;;;;;7.00;4.55;;;;;;;;;;5025369;28;20048;-53
2023/09/09 09:08:42;;;;;;;8.25;4.45;;;;;;;;;;5026203;28;20052;-53
2023/09/09 09:11:10;;;;;;;8.13;5.45;;;;;;;;;;5037970;28;20037;-51
2023/09/09 09:13:36;;;;;;;6.78;4.32;;;;;;;;;;5023950;28;20525;-49
2023/09/09 09:16:02;;;;;;;8.23;5.53;;;;;;;;;;4976742;28;20032;-50
2023/09/09 09:18:29;;;;;;;13.85;6.80;;;;;;;;;;5026132;28;20030;-52
2023/09/09 09:21:05;;;;;;;11.73;7.47;;;;;;;;;;5029060;28;20532;-51
2023/09/09 09:23:31;;;;;;;8.27;5.22;;;;;;;;;;5024565;28;20033;-53
2023/09/09 09:25:57;;;;;;;10.80;4.72;;;33.40;93.40;;;;;;5026240;28;20017;-54
2023/09/09 09:28:28;;;;;;;6.47;4.10;;;33.30;92.90;;;;;;5022350;28;20034;-53
2023/09/09 09:30:53;;;;;;;7.43;4.57;;;32.80;92.40;;;;;;5021493;28;20417;-51
2023/09/09 09:33:25;;;;;;;8.27;4.53;;;33.00;92.30;;;;;;5024161;28;20025;-54
2023/09/09 09:35:50;;;;;;;8.25;5.47;;;33.10;92.40;;;;;;5025992;28;20025;-52
2023/09/09 09:38:17;;;;;;;14.18;6.45;;;;;;;;;;5006703;28;20036;-53
2023/09/09 09:40:44;;;;;;;11.13;6.97;;;;;;;;;;5027667;28;20084;-50
2023/09/09 09:43:20;;;;;;;11.45;6.30;;;34.20;93.80;;;;;;5027297;28;20095;-53
2023/09/09 09:45:45;;;;;;;11.65;6.00;;;33.60;99.90;;;;;;5026033;28;20071;-55
2023/09/09 09:48:27;;;;;;;14.43;6.07;;;34.00;92.50;;;;;;5010007;28;20045;-53
2023/09/09 09:50:53;;;;;;;;;;;34.30;92.80;;;;;;5025719;28;21634;-50
2023/09/09 09:53:19;;;;;;;9.65;4.95;;;34.30;91.90;;;;;;5035403;28;20003;-52
2023/09/09 09:55:46;;;;;;;7.60;5.50;;;33.90;91.60;;;;;;4973808;28;20037;-49
2023/09/09 09:58:13;;;;;;;12.93;5.30;;;;;;;;;;5019900;28;20396;-53
2023/09/09 10:00:40;;;;;;;13.52;5.15;;;34.30;91.90;;;;;;5025955;28;20029;-53
2023/09/09 10:03:08;;;;;;;8.77;5.22;;;34.40;92.20;;;;;;5022235;28;20445;-51
2023/09/09 10:05:34;;;;;;;14.05;5.80;;;34.60;91.60;;;;;;5029155;28;20512;-53
2023/09/09 10:08:00;;;;;;;6.60;4.38;;;34.70;91.90;;;;;;5027612;28;20037;-54
2023/09/09 10:10:27;;;;;;;7.25;4.00;;;34.60;91.20;;;;;;5027514;28;20366;-50
2023/09/09 10:12:56;;;;;;;7.75;3.95;;;;;;;;;;5027318;28;20068;-54
2023/09/09 10:15:22;;;;;;;7.18;4.00;;;;;;;;;;5025768;28;20029;-50
2023/09/09 10:17:51;;;;;;;7.22;4.10;;;;;;;;;;5014098;28;20042;-53
2023/09/09 10:20:18;;;;;;;6.32;3.40;;;35.70;99.90;;;;;;5026819;28;20063;-54
2023/09/09 10:22:45;;;;;;;8.15;3.97;;;35.70;99.90;;;;;;5025070;28;20068;-53
2023/09/09 10:25:12;;;;;;;7.35;3.35;;;34.40;93.70;;;;;;5027084;28;20121;-55
2023/09/09 10:27:39;;;;;;;6.90;3.45;;;35.30;91.40;;;;;;5028346;28;20587;-54
2023/09/09 10:30:06;;;;;;;7.10;3.55;;;;;;;;;;5026465;28;20072;-50
2023/09/09 10:32:35;;;;;;;7.43;3.45;;;36.00;90.20;;;;;;4988987;28;20041;-52
2023/09/09 10:35:05;;;;;;;5.25;3.35;;;35.10;89.90;;;;;;5010918;28;20473;-51
2023/09/09 10:37:35;;;;;;;5.93;3.17;;;35.10;90.00;;;;;;4991082;28;20592;-50
2023/09/09 10:40:03;;;;;;;4.93;3.33;;;35.30;88.10;;;;;;5023162;28;20072;-53
2023/09/09 10:42:30;;;;;;;7.07;3.28;;;34.90;86.70;;;;;;5004772;28;20038;-54
2023/09/09 10:45:16;;;;;;;4.97;3.17;;;35.40;89.10;;;;;;5023481;28;20026;-53
2023/09/09 10:48:01;;;;;;;6.57;3.47;;;35.00;86.80;;;;;;5026591;28;20063;-52
2023/09/09 10:50:39;;;;;;;3.65;2.85;;;35.00;88.50;;;;;;5025948;28;20440;-54
2023/09/09 10:53:27;;;;;;;5.40;3.15;;;35.10;87.60;;;;;;5028859;28;20473;-51
2023/09/09 10:55:55;;;;;;;6.43;2.70;;;34.80;87.30;;;;;;5026942;28;21670;-53
2023/09/09 10:58:30;;;;;;;4.72;2.58;;;35.00;89.20;;;;;;5029910;28;20084;-53
2023/09/09 11:00:56;;;;;;;6.35;2.83;;;;;;;;;;5010019;28;20508;-52
2023/09/09 11:03:22;;;;;;;3.38;2.75;;;34.80;82.70;;;;;;5026866;28;20025;-50
2023/09/09 11:06:10;;;;;;;5.13;2.80;;;34.70;84.20;;;;;;5009072;28;20041;-51
2023/09/09 11:08:41;;;;;;;3.58;2.67;;;34.70;83.80;;;;;;5027849;28;20033;-54
2023/09/09 11:11:23;;;;;;;8.43;2.80;;;34.30;84.50;;;;;;5011279;28;20463;-51
2023/09/09 11:13:51;;;;;;;4.43;3.33;;;34.00;85.40;;;;;;5024440;28;20057;-52
2023/09/09 11:16:24;;;;;;;6.47;3.10;;;34.10;85.10;;;;;;5022757;28;20033;-51
2023/09/09 11:18:52;;;;;;;5.78;2.63;;;;;;;;;;5010702;28;20508;-55
2023/09/09 11:21:23;;;;;;;4.20;2.97;;;33.80;84.00;;;;;;5028443;28;20047;-53
2023/09/09 11:23:52;;;;;;;4.15;2.88;;;34.10;85.00;;;;;;5028391;28;20366;-53
2023/09/09 11:26:18;;;;;;;4.38;2.80;;;33.60;84.00;;;;;;5028216;28;20045;-54
2023/09/09 11:28:46;;;;;;;4.63;2.97;;;34.10;87.30;;;;;;5027391;28;20064;-52
2023/09/09 11:31:12;;;;;;;3.40;3.10;;;34.00;85.50;;;;;;5028210;28;20021;-52
2023/09/09 11:33:38;;;;;;;5.47;2.90;;;34.10;84.60;;;;;;5027937;28;20040;-52
2023/09/09 11:36:05;;;;;;;3.70;3.00;;;34.20;85.30;;;;;;5027752;28;20553;-51
2023/09/09 11:38:34;;;;;;;7.47;3.22;;;34.00;85.10;;;;;;5024226;28;20091;-52
2023/09/09 11:41:00;;;;;;;5.80;2.83;;;34.30;86.00;;;;;;5004769;28;20534;-53
2023/09/09 11:43:26;;;;;;;5.80;3.08;;;33.70;86.00;;;;;;5021584;28;20543;-50
2023/09/09 11:45:52;;;;;;;5.78;3.05;;;34.10;85.30;;;;;;5022156;28;20022;-52
2023/09/09 11:48:18;;;;;;;4.30;3.53;;;34.10;85.60;;;;;;5022331;28;20085;-51
2023/09/09 11:50:45;;;;;;;4.15;3.08;;;34.20;84.90;;;;;;5022609;28;20026;-49
2023/09/09 11:53:12;;;;;;;5.60;2.95;;;34.00;84.70;;;;;;5023308;28;20469;-52
2023/09/09 11:55:39;;;;;;;5.80;3.58;;;;;;;;;;5023694;28;20033;-51
2023/09/09 11:58:05;;;;;;;5.00;3.63;;;;;;;;;;5021393;28;20047;-52
2023/09/09 12:00:32;;;;;;;6.57;3.38;;;32.90;91.70;;;;;;5022168;28;20095;-51
2023/09/09 12:02:58;;;;;;;10.25;4.15;;;33.10;86.30;;;;;;5024929;28;20034;-54
2023/09/09 12:05:29;;;;;;;5.35;3.17;;;33.40;85.80;;;;;;5024008;28;20041;-49
2023/09/09 12:07:58;;;;;;;6.05;3.67;;;33.50;85.90;;;;;;5013729;28;20390;-55
2023/09/09 12:10:33;;;;;;;90.93;45.40;;;34.00;85.90;;;;;;4978820;28;20053;-52
2023/09/09 12:12:59;;;;;;;52.22;26.02;;;34.50;86.10;;;;;;5013464;28;20029;-53
2023/09/09 12:15:27;;;;;;;22.50;8.85;;;34.20;85.30;;;;;;5013432;28;20495;-49
2023/09/09 12:17:53;;;;;;;9.88;5.13;;;34.00;85.00;;;;;;5013493;28;20029;-53
2023/09/09 12:20:19;;;;;;;11.05;5.05;;;34.00;85.60;;;;;;5013077;28;20052;-54
2023/09/09 12:22:51;;;;;;;138.40;96.43;;;33.80;85.60;;;;;;4995052;28;20033;-52
2023/09/09 12:25:34;;;;;;;20.25;14.45;;;33.90;85.60;;;;;;5013081;28;20030;-53
2023/09/09 12:28:01;;;;;;;41.67;26.15;;;33.70;88.80;;;;;;5010830;28;20069;-49
2023/09/09 12:30:39;;;;;;;14.60;8.32;;;33.20;85.90;;;;;;5011197;28;20065;-54
2023/09/09 12:33:09;;;;;;;13.02;6.88;;;;;;;;;;4998492;28;20125;-54
2023/09/09 12:35:53;;;;;;;19.67;12.38;;;33.80;85.00;;;;;;4998442;28;20425;-53
2023/09/09 12:38:20;;;;;;;5.25;3.45;;;;;;;;;;5014601;28;20042;-54
2023/09/09 12:40:49;;;;;;;6.18;4.20;;;;;;;;;;4998405;28;20042;-49
2023/09/09 12:43:17;;;;;;;6.72;5.63;;;33.20;91.10;;;;;;5014624;28;20168;-53
2023/09/09 12:45:52;;;;;;;7.22;3.92;;;33.30;86.30;;;;;;5014651;28;20037;-52
2023/09/09 12:48:19;;;;;;;7.57;3.83;;;33.80;85.80;;;;;;5014455;28;20128;-54
2023/09/09 12:50:46;;;;;;;4.60;3.35;;;;;;;;;;5014533;28;20030;-52
2023/09/09 12:53:12;;;;;;;9.07;4.20;;;;;;;;;;5014452;28;20120;-51
2023/09/09 12:55:39;;;;;;;4.88;3.35;;;;;;;;;;5014600;28;20505;-50
2023/09/09 12:58:05;;;;;;;7.60;3.60;;;;;;;;;;4998301;28;20490;-55